Time;durP1;ratioP1;P1;durP2;ratioP2;P2;SDS_P1;SDS_P2;PMS_P1;PMS_P2;Temp;Humidity;BMP_temperature;BMP_pressure;BME280_temperature;BME280_humidity;BME280_pressure;Samples;Min_cycle;Max_cycle;Signal;HPM_P1;HPM_P2
2022/10/17 00:01:05;;;;;;;9.43;2.25;;;12.00;99.90;;;;;;5117336;27;20039;-81
2022/10/17 00:03:31;;;;;;;6.03;2.22;;;12.70;99.90;;;;;;5149398;27;20378;-82
2022/10/17 00:05:57;;;;;;;14.82;2.97;;;12.00;99.90;;;;;;5144254;27;20555;-83
2022/10/17 00:08:22;;;;;;;13.82;2.72;;;12.00;99.90;;;;;;5122560;27;20110;-84
2022/10/17 00:10:58;;;;;;;11.45;2.83;;;12.70;99.90;;;;;;5131298;27;20565;-82
2022/10/17 00:13:24;;;;;;;7.70;2.58;;;12.00;99.90;;;;;;5125639;27;20043;-82
2022/10/17 00:15:50;;;;;;;15.88;3.05;;;12.00;99.90;;;;;;5130992;27;20129;-81
2022/10/17 00:18:15;;;;;;;10.27;3.03;;;12.00;99.90;;;;;;5100958;27;20439;-80
2022/10/17 00:20:41;;;;;;;8.05;3.03;;;12.00;99.90;;;;;;5130395;27;20034;-82
2022/10/17 00:23:07;;;;;;;9.77;2.90;;;12.00;99.90;;;;;;5100123;27;20054;-83
2022/10/17 00:25:32;;;;;;;11.40;3.38;;;12.00;99.90;;;;;;5149373;27;20505;-81
2022/10/17 00:27:58;;;;;;;8.77;2.88;;;11.90;99.90;;;;;;5142561;27;20130;-82
2022/10/17 00:30:24;;;;;;;12.85;3.25;;;11.90;99.90;;;;;;5121946;27;20554;-83
2022/10/17 00:32:50;;;;;;;8.23;3.08;;;11.90;99.90;;;;;;5128189;27;20072;-82
2022/10/17 00:35:16;;;;;;;7.82;3.00;;;12.00;99.90;;;;;;5127627;27;20094;-82
2022/10/17 00:37:41;;;;;;;11.88;3.67;;;11.90;99.90;;;;;;5095932;27;20047;-82
2022/10/17 00:40:08;;;;;;;13.60;3.28;;;12.10;99.90;;;;;;5111154;27;20074;-84
2022/10/17 00:42:33;;;;;;;11.93;2.72;;;11.90;99.90;;;;;;5125820;27;20043;-82
2022/10/17 00:45:10;;;;;;;10.18;2.80;;;12.00;99.90;;;;;;5129840;27;20042;-83
2022/10/17 00:47:40;;;;;;;17.75;2.88;;;11.90;99.90;;;;;;5104340;27;20367;-85
2022/10/17 00:50:07;;;;;;;15.82;3.40;;;12.00;99.90;;;;;;5122227;27;20035;-82
2022/10/17 00:52:33;;;;;;;12.15;3.22;;;12.00;99.90;;;;;;5101205;27;20079;-83
2022/10/17 00:55:12;;;;;;;9.15;3.17;;;12.00;99.90;;;;;;5108492;27;20080;-86
2022/10/17 00:57:38;;;;;;;6.65;2.42;;;12.00;99.90;;;;;;5109010;27;20099;-85
2022/10/17 01:00:07;;;;;;;16.92;3.00;;;12.00;99.90;;;;;;5134116;27;20485;-82
2022/10/17 01:02:33;;;;;;;13.88;3.10;;;12.00;99.90;;;;;;5128275;27;20039;-83
2022/10/17 01:04:59;;;;;;;12.85;2.85;;;12.00;99.90;;;;;;5116821;27;20053;-82
2022/10/17 01:07:27;;;;;;;15.25;3.08;;;12.00;99.90;;;;;;5118271;27;20118;-82
2022/10/17 01:09:54;;;;;;;7.70;2.80;;;12.00;99.90;;;;;;5116448;27;20049;-81
2022/10/17 01:12:37;;;;;;;10.20;3.15;;;12.50;99.90;;;;;;5102629;27;20075;-82
2022/10/17 01:15:12;;;;;;;8.15;3.40;;;12.00;99.90;;;;;;5148652;27;20043;-82
2022/10/17 01:18:08;;;;;;;10.82;2.55;;;12.00;99.90;;;;;;5119778;27;20078;-82
2022/10/17 01:20:37;;;;;;;8.18;2.97;;;12.00;99.90;;;;;;5133749;27;20039;-83
2022/10/17 01:23:30;;;;;;;7.28;2.67;;;12.00;99.90;;;;;;5120351;27;20043;-82
2022/10/17 01:26:11;;;;;;;11.75;3.25;;;12.00;99.90;;;;;;5133911;27;20047;-83
2022/10/17 01:29:10;;;;;;;12.85;3.55;;;12.10;99.90;;;;;;5144679;27;20099;-82
2022/10/17 01:31:54;;;;;;;10.43;2.78;;;12.10;99.90;;;;;;5104842;27;20058;-81
2022/10/17 01:34:44;;;;;;;10.30;2.45;;;12.10;99.90;;;;;;5132505;27;20061;-82
2022/10/17 01:37:28;;;;;;;6.00;2.53;;;12.10;99.90;;;;;;5102727;27;20083;-84
2022/10/17 01:40:04;;;;;;;9.30;2.83;;;12.10;99.90;;;;;;5102416;27;20512;-84
2022/10/17 01:42:36;;;;;;;9.65;2.75;;;12.10;99.90;;;;;;5124146;27;20039;-84
2022/10/17 01:45:05;;;;;;;11.48;2.40;;;12.10;99.90;;;;;;5142646;27;20042;-86
2022/10/17 01:47:33;;;;;;;7.90;2.60;;;12.10;99.90;;;;;;5109594;27;20046;-87
2022/10/17 01:50:06;;;;;;;9.40;2.80;;;12.10;99.90;;;;;;5131350;27;20042;-87
2022/10/17 01:53:00;;;;;;;10.38;2.58;;;12.20;99.90;;;;;;5116728;27;20047;-85
2022/10/17 01:55:31;;;;;;;10.38;2.60;;;12.20;99.90;;;;;;5147786;27;20135;-88
2022/10/17 01:58:02;;;;;;;9.35;2.25;;;12.20;99.90;;;;;;5142937;27;20038;-87
2022/10/17 02:00:29;;;;;;;6.90;2.53;;;12.20;99.90;;;;;;5112148;27;20556;-82
2022/10/17 02:03:02;;;;;;;9.82;2.85;;;12.20;99.90;;;;;;5131589;27;20091;-81
2022/10/17 02:05:36;;;;;;;6.50;2.75;;;12.20;99.90;;;;;;5111413;27;20042;-81
2022/10/17 02:08:02;;;;;;;7.75;2.20;;;12.20;99.90;;;;;;5123170;27;20081;-81
2022/10/17 02:10:39;;;;;;;5.72;2.40;;;12.10;99.90;;;;;;5114971;27;20035;-83
2022/10/17 02:13:43;;;;;;;9.82;2.72;;;12.70;99.90;;;;;;5120885;27;20047;-82
2022/10/17 02:16:17;;;;;;;9.48;2.63;;;12.10;99.90;;;;;;5147499;27;20046;-82
2022/10/17 02:18:51;;;;;;;10.00;3.20;;;12.10;99.90;;;;;;5104176;27;20492;-82
2022/10/17 02:21:37;;;;;;;6.63;3.00;;;12.10;99.90;;;;;;5099283;27;20041;-82
2022/10/17 02:24:37;;;;;;;11.77;3.25;;;12.10;99.90;;;;;;5111098;27;20083;-82
2022/10/17 02:27:13;;;;;;;10.07;2.97;;;12.10;99.90;;;;;;5102717;27;20043;-82
2022/10/17 02:29:47;;;;;;;10.38;3.17;;;13.40;99.90;;;;;;5120553;27;20076;-82
2022/10/17 02:32:27;;;;;;;11.93;3.53;;;12.10;99.90;;;;;;5099702;27;20047;-81
2022/10/17 02:34:55;;;;;;;10.68;2.70;;;12.90;99.90;;;;;;5125064;27;20035;-82
2022/10/17 02:37:27;;;;;;;7.70;2.40;;;12.40;99.90;;;;;;5131654;27;20067;-83
2022/10/17 02:39:56;;;;;;;11.32;2.97;;;13.10;99.90;;;;;;5132444;27;20482;-84
2022/10/17 02:42:24;;;;;;;15.52;3.10;;;12.50;99.90;;;;;;5125468;27;20486;-85
2022/10/17 02:44:57;;;;;;;6.07;3.30;;;12.20;99.90;;;;;;5132350;27;20446;-88
2022/10/17 02:47:53;;;;;;;6.82;2.70;;;12.20;99.90;;;;;;5125329;27;20035;-88
2022/10/17 02:50:24;;;;;;;8.55;3.10;;;12.20;99.90;;;;;;5128886;27;20038;-84
2022/10/17 02:53:00;;;;;;;9.73;2.83;;;13.00;99.90;;;;;;5114364;27;20390;-86
2022/10/17 02:55:32;;;;;;;6.07;2.63;;;12.20;99.90;;;;;;5112981;27;20042;-86
2022/10/17 02:58:24;;;;;;;10.65;3.47;;;12.20;99.90;;;;;;5099802;27;20483;-83
2022/10/17 03:00:51;;;;;;;6.13;3.42;;;12.40;99.90;;;;;;5144416;27;20042;-83
2022/10/17 03:03:28;;;;;;;8.60;4.28;;;12.20;99.90;;;;;;5125853;27;20093;-83
2022/10/17 03:05:54;;;;;;;5.80;3.50;;;12.20;99.90;;;;;;5144433;27;20167;-84
2022/10/17 03:08:21;;;;;;;6.82;3.58;;;13.60;99.90;;;;;;5099287;27;20538;-82
2022/10/17 03:10:46;;;;;;;8.05;3.45;;;13.10;99.90;;;;;;5123717;27;20132;-83
2022/10/17 03:13:12;;;;;;;6.97;3.60;;;12.30;99.90;;;;;;5100119;27;20150;-82
2022/10/17 03:15:38;;;;;;;10.20;4.20;;;12.30;99.90;;;;;;5101790;27;20043;-82
2022/10/17 03:18:04;;;;;;;5.60;3.80;;;12.30;99.90;;;;;;5102069;27;20050;-83
2022/10/17 03:20:29;;;;;;;9.18;3.95;;;12.30;99.90;;;;;;5100650;27;20187;-82
2022/10/17 03:22:55;;;;;;;8.68;4.28;;;12.30;99.90;;;;;;5122446;27;20058;-82
2022/10/17 03:25:21;;;;;;;9.10;4.68;;;13.30;99.90;;;;;;5122995;27;20118;-83
2022/10/17 03:27:46;;;;;;;7.60;3.83;;;13.50;99.90;;;;;;5150492;27;20043;-82
2022/10/17 03:30:12;;;;;;;10.18;4.53;;;12.30;99.90;;;;;;5124977;27;20125;-84
2022/10/17 03:32:38;;;;;;;7.13;4.40;;;13.30;99.90;;;;;;5116447;27;20143;-84
2022/10/17 03:35:04;;;;;;;10.30;5.05;;;12.40;99.90;;;;;;5119526;27;20039;-82
2022/10/17 03:37:29;;;;;;;9.93;4.75;;;12.40;99.90;;;;;;5146459;27;20127;-83
2022/10/17 03:39:55;;;;;;;12.32;4.70;;;12.40;99.90;;;;;;5114565;27;20250;-82
2022/10/17 03:42:21;;;;;;;10.77;4.97;;;12.40;99.90;;;;;;5144515;27;20057;-84
2022/10/17 03:44:46;;;;;;;10.07;5.00;;;12.40;99.90;;;;;;5099918;28;20497;-83
2022/10/17 03:47:12;;;;;;;7.00;4.95;;;12.40;99.90;;;;;;5102812;27;20385;-86
2022/10/17 03:49:37;;;;;;;9.00;5.00;;;13.60;99.90;;;;;;5149187;27;20493;-88
2022/10/17 03:52:03;;;;;;;9.50;5.47;;;12.40;99.90;;;;;;5104670;28;20035;-88
2022/10/17 03:54:28;;;;;;;9.13;5.28;;;12.40;99.90;;;;;;5120270;27;20492;-88
2022/10/17 03:56:54;;;;;;;7.80;5.15;;;12.40;99.90;;;;;;5143733;27;20113;-87
2022/10/17 03:59:20;;;;;;;6.43;5.40;;;12.40;99.90;;;;;;5124946;27;20073;-81
2022/10/17 04:01:45;;;;;;;10.10;5.40;;;12.40;99.90;;;;;;5105886;27;20070;-83
2022/10/17 04:04:11;;;;;;;6.90;5.30;;;12.50;99.90;;;;;;5149737;27;20370;-82
2022/10/17 04:06:37;;;;;;;6.43;5.30;;;12.50;99.90;;;;;;5128647;27;20505;-83
2022/10/17 04:09:03;;;;;;;6.43;5.93;;;12.50;99.90;;;;;;5125893;27;20039;-81
2022/10/17 04:11:29;;;;;;;11.50;6.88;;;12.50;99.90;;;;;;5140561;27;20041;-81
2022/10/17 04:13:56;;;;;;;10.40;6.20;;;13.00;99.90;;;;;;5143057;27;20043;-83
2022/10/17 04:16:22;;;;;;;11.00;6.65;;;12.50;99.90;;;;;;5146033;27;20034;-83
2022/10/17 04:18:54;;;;;;;7.57;6.47;;;12.70;99.90;;;;;;5105601;27;20050;-81
2022/10/17 04:21:20;;;;;;;9.00;6.00;;;12.50;99.90;;;;;;5151918;27;20042;-82
2022/10/17 04:23:45;;;;;;;11.48;6.90;;;12.50;99.90;;;;;;5134136;27;20034;-82
2022/10/17 04:26:11;;;;;;;7.47;6.88;;;12.70;99.90;;;;;;5129992;27;20031;-83
2022/10/17 04:28:36;;;;;;;11.98;8.35;;;12.50;99.90;;;;;;5150499;27;20039;-84
2022/10/17 04:31:05;;;;;;;8.82;7.85;;;13.40;99.90;;;;;;5108941;27;20513;-82
2022/10/17 04:33:32;;;;;;;9.82;7.88;;;12.60;99.90;;;;;;5117276;27;20043;-86
2022/10/17 04:35:59;;;;;;;11.77;8.18;;;12.60;99.90;;;;;;5120011;27;20042;-86
2022/10/17 04:38:25;;;;;;;12.48;8.23;;;12.70;99.90;;;;;;5114683;27;20039;-86
2022/10/17 04:40:51;;;;;;;12.13;9.38;;;12.70;99.90;;;;;;5109046;27;20505;-86
2022/10/17 04:43:17;;;;;;;13.15;10.38;;;12.80;99.90;;;;;;5134080;27;20070;-85
2022/10/17 04:45:42;;;;;;;12.30;9.25;;;13.70;99.90;;;;;;5106468;27;20046;-88
2022/10/17 04:48:08;;;;;;;13.25;9.45;;;12.80;99.90;;;;;;5129382;27;20046;-85
2022/10/17 04:50:33;;;;;;;12.98;10.15;;;12.90;99.90;;;;;;5117271;27;20043;-89
2022/10/17 04:52:59;;;;;;;14.30;10.63;;;12.90;99.90;;;;;;5147587;27;20460;-84
2022/10/17 04:55:24;;;;;;;14.05;11.02;;;14.20;99.90;;;;;;5148862;27;20099;-83
2022/10/17 04:57:50;;;;;;;13.10;11.43;;;14.40;99.90;;;;;;5149367;27;20114;-81
2022/10/17 05:00:16;;;;;;;13.10;11.35;;;14.40;99.90;;;;;;5125999;27;20121;-81
2022/10/17 05:02:41;;;;;;;15.65;12.30;;;13.10;99.90;;;;;;5112787;27;20526;-81
2022/10/17 05:05:07;;;;;;;13.68;11.05;;;14.40;99.90;;;;;;5149602;27;20615;-83
2022/10/17 05:07:33;;;;;;;12.23;10.98;;;13.20;99.90;;;;;;5115026;27;20042;-83
2022/10/17 05:09:58;;;;;;;13.68;11.55;;;14.60;99.90;;;;;;5098791;27;20613;-84
2022/10/17 05:12:25;;;;;;;14.07;12.52;;;13.30;99.90;;;;;;5131159;27;20083;-84
2022/10/17 05:14:51;;;;;;;12.85;11.50;;;13.40;99.90;;;;;;5120743;27;20031;-84
2022/10/17 05:17:16;;;;;;;13.70;11.88;;;13.70;99.90;;;;;;5112171;27;20391;-83
2022/10/17 05:19:42;;;;;;;13.98;12.23;;;13.40;99.90;;;;;;5132590;27;20039;-82
2022/10/17 05:22:08;;;;;;;14.30;11.65;;;13.50;99.90;;;;;;5150198;27;20409;-83
2022/10/17 05:24:33;;;;;;;13.43;11.93;;;13.50;99.90;;;;;;5131230;27;20489;-85
2022/10/17 05:27:02;;;;;;;13.55;12.25;;;14.50;99.90;;;;;;5146401;27;20042;-83
2022/10/17 05:29:27;;;;;;;15.00;11.68;;;13.50;99.90;;;;;;5109784;28;20241;-82
2022/10/17 05:31:53;;;;;;;16.08;12.35;;;13.60;99.90;;;;;;5087824;28;20411;-82
2022/10/17 05:34:19;;;;;;;14.50;12.95;;;13.60;99.90;;;;;;5084703;28;20114;-82
2022/10/17 05:36:45;;;;;;;11.77;10.60;;;15.00;99.90;;;;;;5107773;28;20689;-82
2022/10/17 05:39:18;;;;;;;16.17;11.52;;;13.60;99.90;;;;;;5086089;28;20043;-83
2022/10/17 05:41:44;;;;;;;16.20;12.10;;;13.60;99.90;;;;;;5105506;28;20569;-83
2022/10/17 05:44:10;;;;;;;16.52;11.70;;;13.60;99.90;;;;;;5109972;28;20039;-84
2022/10/17 05:46:36;;;;;;;15.88;12.02;;;13.90;99.90;;;;;;5104791;28;20040;-82
2022/10/17 05:49:01;;;;;;;15.45;12.20;;;13.70;99.90;;;;;;5109377;28;20498;-84
2022/10/17 05:51:27;;;;;;;13.70;12.40;;;13.70;99.90;;;;;;5109194;28;20070;-82
2022/10/17 05:53:53;;;;;;;14.30;12.52;;;13.70;99.90;;;;;;5110596;28;20058;-82
2022/10/17 05:56:19;;;;;;;13.00;11.48;;;13.70;99.90;;;;;;5097833;28;20388;-82
2022/10/17 05:58:45;;;;;;;13.75;11.77;;;13.70;99.90;;;;;;5109436;28;20042;-83
2022/10/17 06:01:11;;;;;;;14.15;12.38;;;13.70;99.90;;;;;;5105676;28;20119;-82
2022/10/17 06:03:37;;;;;;;14.88;11.50;;;13.80;99.90;;;;;;5108389;28;20066;-83
2022/10/17 06:06:14;;;;;;;13.05;11.68;;;13.70;99.90;;;;;;5086784;28;20480;-84
2022/10/17 06:08:40;;;;;;;15.15;11.90;;;13.70;99.90;;;;;;5124780;27;20391;-82
2022/10/17 06:11:05;;;;;;;14.38;11.98;;;14.30;99.90;;;;;;5079889;28;20032;-82
2022/10/17 06:13:31;;;;;;;15.75;11.77;;;13.70;99.90;;;;;;5088628;28;20096;-82
2022/10/17 06:15:57;;;;;;;13.80;11.48;;;13.70;99.90;;;;;;5097147;28;20036;-83
2022/10/17 06:18:23;;;;;;;15.30;11.60;;;13.70;99.90;;;;;;5106925;28;20548;-81
2022/10/17 06:20:48;;;;;;;14.82;13.32;;;13.80;99.90;;;;;;5087596;28;20127;-83
2022/10/17 06:23:14;;;;;;;19.25;16.83;;;13.70;99.90;;;;;;5079558;28;20036;-82
2022/10/17 06:25:40;;;;;;;13.75;11.27;;;14.30;99.90;;;;;;5107268;28;20079;-82
2022/10/17 06:28:05;;;;;;;14.77;12.65;;;13.80;99.90;;;;;;5127414;27;20099;-82
2022/10/17 06:30:31;;;;;;;18.75;12.02;;;14.50;99.90;;;;;;5128053;27;20382;-82
2022/10/17 06:32:57;;;;;;;12.88;11.55;;;14.00;99.90;;;;;;5131539;27;20119;-81
2022/10/17 06:35:25;;;;;;;16.38;11.80;;;13.90;99.90;;;;;;5146531;27;20057;-81
2022/10/17 06:37:50;;;;;;;13.27;11.98;;;14.00;99.90;;;;;;5149291;27;20114;-82
2022/10/17 06:40:16;;;;;;;12.10;10.80;;;14.80;99.90;;;;;;5145037;27;20121;-84
2022/10/17 06:42:42;;;;;;;16.20;12.77;;;14.70;99.90;;;;;;5102704;27;20046;-81
2022/10/17 06:45:08;;;;;;;13.60;12.30;;;14.80;99.90;;;;;;5131976;27;20034;-83
2022/10/17 06:47:38;;;;;;;16.30;11.77;;;13.90;99.90;;;;;;5126579;27;20058;-80
2022/10/17 06:50:04;;;;;;;14.80;11.98;;;13.90;99.90;;;;;;5119768;27;20070;-82
2022/10/17 06:52:30;;;;;;;13.25;10.63;;;13.90;99.90;;;;;;5127971;27;20046;-82
2022/10/17 06:54:56;;;;;;;14.38;11.15;;;13.90;99.90;;;;;;5129594;27;20082;-82
2022/10/17 06:57:21;;;;;;;13.38;11.82;;;14.00;99.90;;;;;;5151045;27;20467;-84
2022/10/17 06:59:47;;;;;;;12.43;11.23;;;14.40;99.90;;;;;;5103934;27;20047;-82
2022/10/17 07:02:12;;;;;;;14.75;10.25;;;14.70;99.90;;;;;;5130796;27;20041;-82
2022/10/17 07:04:38;;;;;;;13.35;10.27;;;14.00;99.90;;;;;;5120002;27;20391;-83
2022/10/17 07:07:04;;;;;;;11.60;10.38;;;14.10;99.90;;;;;;5131880;27;20108;-81
2022/10/17 07:09:30;;;;;;;11.35;10.15;;;14.20;99.90;;;;;;5126960;27;20125;-82
2022/10/17 07:11:56;;;;;;;14.65;10.60;;;14.40;99.90;;;;;;5111920;27;20053;-83
2022/10/17 07:14:22;;;;;;;17.50;11.98;;;14.10;99.90;;;;;;5131837;27;20035;-83
2022/10/17 07:16:48;;;;;;;11.73;10.52;;;14.30;99.90;;;;;;5128702;27;20204;-84
2022/10/17 07:19:13;;;;;;;13.13;10.15;;;14.10;99.90;;;;;;5104419;27;20091;-82
2022/10/17 07:21:39;;;;;;;14.23;10.30;;;14.10;99.90;;;;;;5098746;27;20039;-85
2022/10/17 07:24:06;;;;;;;12.80;9.75;;;14.40;99.90;;;;;;5129014;27;20061;-83
2022/10/17 07:26:32;;;;;;;12.15;9.40;;;14.20;99.90;;;;;;5114074;27;20053;-83
2022/10/17 07:28:57;;;;;;;18.30;13.70;;;14.30;99.90;;;;;;5124442;27;20046;-83
2022/10/17 07:31:23;;;;;;;12.10;10.27;;;14.40;99.90;;;;;;5130872;27;20056;-83
2022/10/17 07:33:50;;;;;;;13.63;9.48;;;14.50;99.90;;;;;;5129440;27;20050;-83
2022/10/17 07:36:16;;;;;;;14.30;9.80;;;14.60;99.90;;;;;;5128383;27;20035;-83
2022/10/17 07:38:42;;;;;;;10.10;7.88;;;14.60;99.90;;;;;;5130068;27;20050;-83
2022/10/17 07:41:09;;;;;;;13.48;8.77;;;14.70;99.90;;;;;;5144653;27;20039;-83
2022/10/17 07:43:36;;;;;;;11.52;9.02;;;14.80;99.90;;;;;;5104934;27;20042;-81
2022/10/17 07:46:04;;;;;;;9.55;8.57;;;14.80;99.90;;;;;;5147093;27;20034;-82
2022/10/17 07:48:29;;;;;;;10.52;8.50;;;14.90;99.90;;;;;;5131366;27;20027;-82
2022/10/17 07:50:55;;;;;;;11.18;9.35;;;15.00;99.90;;;;;;5146043;27;20041;-82
2022/10/17 07:53:21;;;;;;;14.63;11.85;;;15.00;99.90;;;;;;5104706;27;20078;-84
2022/10/17 07:55:48;;;;;;;13.13;8.77;;;15.00;99.90;;;;;;5143919;27;20122;-88
2022/10/17 07:58:14;;;;;;;10.32;8.13;;;15.10;99.90;;;;;;5101328;27;20038;-86
2022/10/17 08:00:40;;;;;;;12.25;8.30;;;16.00;99.90;;;;;;5131492;27;20045;-82
2022/10/17 08:03:06;;;;;;;9.98;7.78;;;15.30;99.90;;;;;;5118128;27;20036;-82
2022/10/17 08:05:32;;;;;;;11.50;8.23;;;15.80;99.90;;;;;;5130779;27;20039;-82
2022/10/17 08:07:58;;;;;;;10.25;8.05;;;15.50;99.90;;;;;;5150615;27;20035;-85
2022/10/17 08:10:26;;;;;;;10.95;8.55;;;16.50;99.90;;;;;;5129084;27;20039;-83
2022/10/17 08:12:55;;;;;;;7.78;7.05;;;15.70;99.90;;;;;;5102164;27;20038;-86
2022/10/17 08:15:22;;;;;;;8.27;7.47;;;15.70;99.90;;;;;;5133574;27;20061;-88
2022/10/17 08:17:48;;;;;;;8.93;7.70;;;15.70;99.90;;;;;;5116399;27;20039;-84
2022/10/17 08:20:14;;;;;;;14.52;8.50;;;17.00;99.90;;;;;;5129090;27;20367;-86
2022/10/17 08:22:39;;;;;;;9.85;7.50;;;15.80;99.90;;;;;;5134338;27;20094;-82
2022/10/17 08:25:06;;;;;;;9.23;8.10;;;16.40;99.90;;;;;;5099827;27;20050;-85
2022/10/17 08:27:32;;;;;;;13.18;8.10;;;15.80;99.90;;;;;;5129915;27;20066;-83
2022/10/17 08:29:58;;;;;;;8.40;7.60;;;15.90;99.90;;;;;;5131866;27;20055;-83
2022/10/17 08:32:26;;;;;;;14.95;8.20;;;15.90;99.90;;;;;;5146703;27;20043;-85
2022/10/17 08:34:52;;;;;;;7.55;6.93;;;16.90;99.90;;;;;;5132205;27;20031;-89
2022/10/17 08:37:18;;;;;;;8.45;7.22;;;15.50;99.90;;;;;;5112063;27;20039;-81
2022/10/17 08:39:44;;;;;;;9.27;7.03;;;16.00;99.90;;;;;;5104818;27;20049;-82
2022/10/17 08:42:29;;;;;;;11.27;7.38;;;16.00;99.90;;;;;;5105252;27;20053;-81
2022/10/17 08:45:05;;;;;;;7.75;6.93;;;16.10;99.90;;;;;;5147303;27;20041;-84
2022/10/17 08:47:42;;;;;;;8.27;7.38;;;16.20;99.90;;;;;;5107637;27;20131;-81
2022/10/17 08:50:29;;;;;;;10.57;6.55;;;16.20;99.90;;;;;;5105175;27;20118;-81
2022/10/17 08:53:11;;;;;;;8.60;7.13;;;16.30;99.90;;;;;;5124459;27;20053;-82
2022/10/17 08:55:51;;;;;;;9.20;6.60;;;16.30;99.90;;;;;;5152195;27;20034;-86
2022/10/17 08:58:25;;;;;;;13.52;7.80;;;16.40;99.90;;;;;;5123966;27;20390;-82
2022/10/17 09:01:04;;;;;;;9.15;6.63;;;16.40;99.90;;;;;;5132301;27;20448;-81
2022/10/17 09:04:11;;;;;;;9.65;6.75;;;16.40;99.90;;;;;;5131772;27;20042;-84
2022/10/17 09:06:43;;;;;;;8.93;6.72;;;16.60;99.90;;;;;;5123720;27;20405;-82
2022/10/17 09:09:22;;;;;;;12.48;6.90;;;17.70;99.90;;;;;;5125212;27;20058;-81
2022/10/17 09:12:10;;;;;;;7.82;6.28;;;16.70;99.90;;;;;;5125061;27;20485;-83
2022/10/17 09:14:49;;;;;;;7.60;6.60;;;16.80;99.90;;;;;;5123183;27;20043;-81
2022/10/17 09:17:27;;;;;;;13.60;6.43;;;17.60;99.90;;;;;;5126839;27;20034;-85
2022/10/17 09:20:16;;;;;;;12.70;7.28;;;16.90;99.90;;;;;;5102286;27;20702;-84
2022/10/17 09:22:52;;;;;;;11.02;6.78;;;16.80;99.90;;;;;;5129856;27;20045;-81
2022/10/17 09:25:19;;;;;;;13.75;9.27;;;16.80;99.90;;;;;;5105857;27;20099;-81
2022/10/17 09:28:11;;;;;;;8.13;6.75;;;17.70;99.90;;;;;;5115453;27;20542;-84
2022/10/17 09:30:46;;;;;;;13.55;7.50;;;17.20;99.90;;;;;;5147568;27;20043;-81
2022/10/17 09:33:17;;;;;;;8.77;7.68;;;16.80;99.90;;;;;;5144555;27;20054;-86
2022/10/17 09:35:44;;;;;;;8.75;7.05;;;17.90;99.90;;;;;;5149335;27;20126;-81
2022/10/17 09:38:17;;;;;;;7.65;6.72;;;16.90;99.90;;;;;;5116725;27;20126;-82
2022/10/17 09:40:44;;;;;;;11.77;6.78;;;16.90;99.90;;;;;;5148155;27;20039;-82
2022/10/17 09:43:12;;;;;;;7.30;6.60;;;16.90;99.90;;;;;;5104324;27;20043;-81
2022/10/17 09:46:05;;;;;;;13.05;7.43;;;17.10;99.90;;;;;;5122071;27;20088;-82
2022/10/17 09:48:52;;;;;;;10.88;7.40;;;16.90;99.90;;;;;;5106247;27;20100;-85
2022/10/17 09:51:18;;;;;;;11.27;7.10;;;17.20;99.90;;;;;;5126182;27;20038;-82
2022/10/17 09:53:50;;;;;;;9.75;8.82;;;16.80;99.90;;;;;;5130725;27;20050;-81
2022/10/17 09:56:18;;;;;;;16.77;8.63;;;17.40;99.90;;;;;;5118251;27;20041;-83
2022/10/17 09:58:57;;;;;;;11.55;9.55;;;16.70;99.90;;;;;;5135269;27;20809;-82
2022/10/17 10:01:29;;;;;;;12.88;8.88;;;16.60;99.90;;;;;;5109530;27;20073;-83
2022/10/17 10:04:10;;;;;;;13.15;9.43;;;16.60;99.90;;;;;;5102321;27;20042;-82
2022/10/17 10:06:36;;;;;;;15.10;9.55;;;16.60;99.90;;;;;;5128079;27;20083;-88
2022/10/17 10:09:04;;;;;;;12.98;9.95;;;16.50;99.90;;;;;;5101828;27;20054;-84
2022/10/17 10:11:53;;;;;;;12.52;8.15;;;16.50;99.90;;;;;;5132871;27;20038;-84
2022/10/17 10:14:36;;;;;;;11.90;9.32;;;16.40;99.90;;;;;;5130255;27;20092;-85
2022/10/17 10:17:05;;;;;;;10.98;9.15;;;17.00;99.90;;;;;;5114980;27;20045;-84
2022/10/17 10:19:31;;;;;;;13.40;9.48;;;17.70;99.90;;;;;;5102129;27;20081;-84
2022/10/17 10:22:18;;;;;;;13.10;10.52;;;17.40;99.90;;;;;;5112780;27;20475;-86
2022/10/17 10:25:15;;;;;;;10.55;9.13;;;17.30;99.90;;;;;;5127035;27;20085;-86
2022/10/17 10:27:45;;;;;;;9.80;8.60;;;16.30;99.90;;;;;;5120904;27;20043;-84
2022/10/17 10:30:24;;;;;;;17.05;14.45;;;16.30;99.90;;;;;;5149881;27;20505;-84
2022/10/17 10:32:50;;;;;;;15.85;9.77;;;16.30;99.90;;;;;;5121419;27;20034;-85
2022/10/17 10:35:22;;;;;;;12.32;9.35;;;16.30;99.90;;;;;;5143173;27;20050;-86
2022/10/17 10:37:54;;;;;;;14.30;9.77;;;16.20;99.90;;;;;;5127515;27;20031;-84
2022/10/17 10:40:36;;;;;;;11.75;9.35;;;17.40;99.90;;;;;;5107356;27;20035;-84
2022/10/17 10:43:03;;;;;;;15.77;9.88;;;16.20;99.90;;;;;;5141271;27;20035;-84
2022/10/17 10:45:35;;;;;;;15.60;10.38;;;16.20;99.90;;;;;;5097948;27;20151;-83
2022/10/17 10:48:05;;;;;;;10.95;9.23;;;16.20;99.90;;;;;;5126077;27;20049;-86
2022/10/17 10:50:37;;;;;;;12.55;9.38;;;16.20;99.90;;;;;;5131682;27;20054;-84
2022/10/17 10:53:33;;;;;;;13.88;9.68;;;16.20;99.90;;;;;;5105978;27;20577;-86
2022/10/17 10:56:04;;;;;;;14.30;10.18;;;16.30;99.90;;;;;;5103753;27;20418;-89
2022/10/17 10:59:07;;;;;;;15.38;9.85;;;16.20;99.90;;;;;;5117496;27;20067;-84
2022/10/17 11:01:56;;;;;;;15.27;10.88;;;16.20;99.90;;;;;;5121737;27;20078;-86
2022/10/17 11:05:07;;;;;;;16.40;10.18;;;16.20;99.90;;;;;;5102586;27;20037;-84
2022/10/17 11:07:39;;;;;;;12.32;10.15;;;16.20;99.90;;;;;;5114606;27;20050;-85
2022/10/17 11:10:07;;;;;;;11.23;9.82;;;16.20;99.90;;;;;;5129432;27;20117;-85
2022/10/17 11:12:56;;;;;;;12.85;10.63;;;16.20;99.90;;;;;;5102896;27;20043;-87
2022/10/17 11:15:47;;;;;;;12.32;8.85;;;16.30;99.90;;;;;;5122314;27;20121;-85
2022/10/17 11:18:30;;;;;;;16.90;10.95;;;16.30;99.90;;;;;;5124876;27;20074;-86
2022/10/17 11:21:04;;;;;;;15.55;10.20;;;17.20;99.90;;;;;;5118164;27;20043;-86
2022/10/17 11:23:37;;;;;;;;;;;16.30;99.90;;;;;;5122191;27;20482;-87
2022/10/17 11:26:09;;;;;;;11.07;9.05;;;16.60;99.90;;;;;;5103936;27;20013;-89
2022/10/17 11:28:35;;;;;;;10.45;9.38;;;16.30;99.90;;;;;;5121246;27;20046;-84
2022/10/17 11:31:16;;;;;;;12.63;9.95;;;16.30;99.90;;;;;;5124807;27;20045;-87
2022/10/17 11:34:03;;;;;;;11.23;9.25;;;16.30;99.90;;;;;;5122841;27;20038;-85
2022/10/17 11:36:36;;;;;;;12.75;9.30;;;16.30;99.90;;;;;;5123717;27;20178;-84
2022/10/17 11:39:22;;;;;;;14.27;10.38;;;16.30;99.90;;;;;;5108415;27;20103;-84
2022/10/17 11:41:53;;;;;;;15.73;9.65;;;16.30;99.90;;;;;;5098329;27;20134;-85
2022/10/17 11:44:37;;;;;;;13.32;10.07;;;16.30;99.90;;;;;;5123437;27;20118;-83
2022/10/17 11:47:18;;;;;;;14.90;11.55;;;16.30;99.90;;;;;;5099521;27;20453;-83
2022/10/17 11:49:51;;;;;;;15.55;10.38;;;16.40;99.90;;;;;;5142206;27;20511;-84
2022/10/17 11:52:27;;;;;;;11.30;9.07;;;16.30;99.90;;;;;;5122162;27;20150;-83
2022/10/17 11:54:58;;;;;;;10.13;8.20;;;16.30;99.90;;;;;;5124252;27;20042;-83
2022/10/17 11:57:45;;;;;;;8.38;7.43;;;16.30;99.90;;;;;;5130933;27;20118;-82
2022/10/17 12:00:24;;;;;;;6.00;5.40;;;16.40;99.90;;;;;;5104043;27;20082;-83
2022/10/17 12:03:04;;;;;;;12.85;6.30;;;16.30;99.90;;;;;;4414720;27;10000770;-83
2022/10/17 12:06:05;;;;;;;7.93;6.03;;;16.90;99.90;;;;;;5114598;28;20035;-85
2022/10/17 12:08:40;;;;;;;8.98;6.70;;;16.30;99.90;;;;;;5110763;27;20065;-85
2022/10/17 12:11:49;;;;;;;8.38;6.93;;;16.60;99.90;;;;;;5124703;27;20122;-83
2022/10/17 12:14:33;;;;;;;11.18;8.07;;;16.30;99.90;;;;;;5115871;27;20092;-85
2022/10/17 12:17:02;;;;;;;;;;;16.30;99.90;;;;;;5114004;27;20046;-85
2022/10/17 12:19:31;;;;;;;10.60;6.60;;;17.50;99.90;;;;;;5096834;28;20336;-84
2022/10/17 12:22:03;;;;;;;9.23;5.68;;;17.40;99.90;;;;;;5138697;27;20133;-84
2022/10/17 12:24:39;;;;;;;6.45;5.85;;;16.40;99.90;;;;;;5113454;28;20076;-83
2022/10/17 12:27:37;;;;;;;7.45;6.20;;;16.40;99.90;;;;;;5143979;27;20054;-83
2022/10/17 12:30:24;;;;;;;7.60;5.72;;;16.40;99.90;;;;;;5134070;27;20050;-82
2022/10/17 12:32:56;;;;;;;7.00;5.35;;;16.40;99.90;;;;;;5099674;27;20039;-86
2022/10/17 12:35:24;;;;;;;9.27;5.15;;;16.50;99.90;;;;;;5103831;27;20050;-85
2022/10/17 12:37:52;;;;;;;7.13;4.93;;;17.50;99.90;;;;;;5101810;27;20043;-83
2022/10/17 12:40:36;;;;;;;4.57;4.20;;;17.90;99.90;;;;;;5122555;27;20046;-87
2022/10/17 12:43:29;;;;;;;3.80;3.50;;;16.40;99.90;;;;;;5140571;27;20042;-85
2022/10/17 12:45:59;;;;;;;7.57;4.55;;;16.50;99.90;;;;;;5104388;27;20134;-80
2022/10/17 12:48:37;;;;;;;5.57;4.72;;;16.40;99.90;;;;;;5146908;27;20043;-85
2022/10/17 12:51:12;;;;;;;5.03;3.75;;;16.30;99.90;;;;;;5123596;27;20113;-85
2022/10/17 12:53:45;;;;;;;4.80;4.30;;;16.30;99.90;;;;;;5099675;27;20389;-85
2022/10/17 12:56:13;;;;;;;4.97;4.45;;;16.00;99.90;;;;;;5125537;27;20043;-88
2022/10/17 12:58:44;;;;;;;4.95;3.97;;;16.60;99.90;;;;;;5102225;27;20466;-88
2022/10/17 13:01:25;;;;;;;6.13;4.28;;;16.40;99.90;;;;;;5130311;27;20039;-88